createdAt,value
2018-07-24T00:01:25.266Z,98497.09
2018-07-24T00:03:55.977Z,98491.11
2018-07-24T00:06:28.089Z,98498.05
2018-07-24T00:08:58.887Z,98495.68
2018-07-24T00:11:29.607Z,98499.08
2018-07-24T00:14:00.324Z,98493.14
2018-07-24T00:16:31.625Z,98492.64
2018-07-24T00:19:02.985Z,98500.97
2018-07-24T00:21:33.918Z,98498.22
2018-07-24T00:24:04.568Z,98499.75
2018-07-24T00:26:35.228Z,98500.77
2018-07-24T00:29:05.832Z,98503.59
2018-07-24T00:31:36.595Z,98494.00
2018-07-24T00:34:07.369Z,98493.05
2018-07-24T00:36:38.855Z,98497.84
2018-07-24T00:39:11.349Z,98488.58
2018-07-24T00:41:42.088Z,98487.07
2018-07-24T00:44:12.189Z,98487.55
2018-07-24T00:46:43.032Z,98482.75
2018-07-24T00:49:13.714Z,98483.09
2018-07-24T00:51:44.517Z,98477.80
2018-07-24T00:54:15.282Z,98472.81
2018-07-24T00:56:46.724Z,98469.84
2018-07-24T00:59:20.392Z,98473.17
2018-07-24T01:01:51.111Z,98474.18
2018-07-24T01:04:22.594Z,98475.67
2018-07-24T01:06:53.335Z,98476.83
2018-07-24T01:09:24.059Z,98476.97
2018-07-24T01:11:54.783Z,98474.99
2018-07-24T01:14:26.181Z,98483.76
2018-07-24T01:16:57.878Z,98487.67
2018-07-24T01:19:28.739Z,98487.36
2018-07-24T01:21:59.811Z,98494.80
2018-07-24T01:24:30.759Z,98499.45
2018-07-24T01:27:01.423Z,98498.97
2018-07-24T01:29:31.911Z,98492.19
2018-07-24T01:32:02.739Z,98494.34
2018-07-24T01:34:34.193Z,98497.34
2018-07-24T01:37:04.818Z,98504.27
2018-07-24T01:39:34.805Z,98498.98
2018-07-24T01:42:05.306Z,98499.64
2018-07-24T01:44:35.274Z,98497.66
2018-07-24T01:47:05.829Z,98496.33
2018-07-24T01:49:36.367Z,98498.14
2018-07-24T01:52:07.208Z,98496.33
2018-07-24T01:54:38.560Z,98494.70
2018-07-24T01:57:09.164Z,98491.87
2018-07-24T01:59:39.741Z,98491.04
2018-07-24T02:02:10.558Z,98495.32
2018-07-24T02:04:41.135Z,98497.16
2018-07-24T02:07:11.564Z,98499.63
2018-07-24T02:09:42.065Z,98490.49
2018-07-24T02:12:12.184Z,98491.97
2018-07-24T02:14:43.437Z,98491.96
2018-07-24T02:17:13.931Z,98499.73
2018-07-24T02:19:44.512Z,98494.80
2018-07-24T02:22:14.977Z,98493.62
2018-07-24T02:24:45.378Z,98487.36
2018-07-24T02:27:15.944Z,98479.08
2018-07-24T02:29:46.587Z,98476.44
2018-07-24T02:32:17.349Z,98484.23
2018-07-24T02:34:48.434Z,98485.73
2018-07-24T02:37:19.036Z,98478.13
2018-07-24T02:39:49.656Z,98476.17
2018-07-24T02:42:20.087Z,98479.80
2018-07-24T02:44:50.508Z,98483.45
2018-07-24T02:47:21.066Z,98484.91
2018-07-24T02:49:51.658Z,98496.31
2018-07-24T02:52:22.396Z,98498.05
2018-07-24T02:54:53.673Z,98499.77
2018-07-24T02:57:24.168Z,98501.30
2018-07-24T02:59:54.746Z,98507.51
2018-07-24T03:02:25.233Z,98503.16
2018-07-24T03:04:55.361Z,98513.55
2018-07-24T03:07:25.846Z,98512.48
2018-07-24T03:09:56.364Z,98513.86
2018-07-24T03:12:27.892Z,98503.00
2018-07-24T03:14:59.027Z,98500.56
2018-07-24T03:17:29.596Z,98503.38
2018-07-24T03:20:00.034Z,98505.69
2018-07-24T03:22:31.013Z,98505.38
2018-07-24T03:25:02.425Z,98504.38
2018-07-24T03:27:33.042Z,98500.75
2018-07-24T03:30:03.666Z,98507.04
2018-07-24T03:32:34.273Z,98516.30
2018-07-24T03:35:04.947Z,98517.58
2018-07-24T03:37:35.434Z,98516.63
2018-07-24T03:40:06.158Z,98513.59
2018-07-24T03:42:36.605Z,98514.94
2018-07-24T03:45:07.654Z,98512.08
2018-07-24T03:47:38.119Z,98519.54
2018-07-24T03:50:08.552Z,98525.42
2018-07-24T03:52:39.145Z,98525.17
2018-07-24T03:55:09.949Z,98523.95
2018-07-24T03:57:41.465Z,98525.64
2018-07-24T04:00:12.569Z,98523.56
2018-07-24T04:02:43.268Z,98524.75
2018-07-24T04:05:13.920Z,98525.46
2018-07-24T04:07:44.441Z,98520.21
2018-07-24T04:10:14.949Z,98524.55
2018-07-24T04:12:45.489Z,98526.84
2018-07-24T04:15:16.581Z,98532.80
2018-07-24T04:17:48.214Z,98528.53
2018-07-24T04:20:18.842Z,98541.11
2018-07-24T04:22:49.434Z,98537.45
2018-07-24T04:25:20.215Z,98534.00
2018-07-24T04:27:50.745Z,98541.69
2018-07-24T04:30:21.270Z,98544.84
2018-07-24T04:32:51.882Z,98542.19
2018-07-24T04:35:23.229Z,98549.32
2018-07-24T04:37:54.734Z,98546.53
2018-07-24T04:40:25.294Z,98547.90
2018-07-24T04:42:56.006Z,98546.97
2018-07-24T04:45:26.590Z,98547.67
2018-07-24T04:47:57.272Z,98542.43
2018-07-24T04:50:27.796Z,98555.72
2018-07-24T04:52:58.504Z,98548.00
2018-07-24T04:55:29.909Z,98552.66
2018-07-24T04:58:00.585Z,98550.06
2018-07-24T05:00:31.193Z,98549.25
2018-07-24T05:03:02.789Z,98551.24
2018-07-24T05:05:34.216Z,98550.44
2018-07-24T05:08:05.601Z,98557.38
2018-07-24T05:10:36.257Z,98553.29
2018-07-24T05:13:06.961Z,98550.28
2018-07-24T05:15:38.765Z,98553.76
2018-07-24T05:18:09.599Z,98548.62
2018-07-24T05:20:40.365Z,98554.07
2018-07-24T05:23:10.480Z,98547.77
2018-07-24T05:25:41.090Z,98548.70
2018-07-24T05:28:11.771Z,98550.69
2018-07-24T05:30:42.536Z,98549.83
2018-07-24T05:33:13.601Z,98551.58
2018-07-24T05:35:45.357Z,98552.64
2018-07-24T05:38:16.721Z,98558.50
2018-07-24T05:40:47.337Z,98561.08
2018-07-24T05:43:18.440Z,98567.59
2018-07-24T05:45:49.346Z,98566.79
2018-07-24T05:48:20.725Z,98568.28
2018-07-24T05:50:51.462Z,98560.80
2018-07-24T05:53:22.493Z,98567.25
2018-07-24T05:55:54.642Z,98564.05
2018-07-24T05:58:26.770Z,98560.01
2018-07-24T06:00:58.157Z,98570.39
2018-07-24T06:03:28.383Z,98568.53
2018-07-24T06:05:59.307Z,98570.50
2018-07-24T06:08:30.035Z,98563.50
2018-07-24T06:11:00.776Z,98575.80
2018-07-24T06:13:31.447Z,98574.77
2018-07-24T06:16:02.308Z,98574.09
2018-07-24T06:18:33.089Z,98570.97
2018-07-24T06:21:03.932Z,98564.12
2018-07-24T06:23:34.853Z,98570.58
2018-07-24T06:26:07.244Z,98569.63
2018-07-24T06:28:37.928Z,98572.12
2018-07-24T06:31:08.512Z,98570.61
2018-07-24T06:33:39.107Z,98564.75
2018-07-24T06:36:10.353Z,98559.12
2018-07-24T06:38:41.688Z,98563.33
2018-07-24T06:41:12.404Z,98565.71
2018-07-24T06:43:42.987Z,98565.30
2018-07-24T06:46:13.600Z,98568.77
2018-07-24T06:48:44.247Z,98567.42
2018-07-24T06:51:15.003Z,98573.88
2018-07-24T06:53:46.353Z,98569.33
2018-07-24T06:56:18.194Z,98576.73
2018-07-24T06:58:50.359Z,98571.84
2018-07-24T07:01:21.164Z,98571.02
2018-07-24T07:03:52.363Z,98567.90
2018-07-24T07:06:23.038Z,98564.91
2018-07-24T07:08:58.363Z,98565.53
2018-07-24T07:11:30.752Z,98569.03
2018-07-24T07:14:02.302Z,98568.73
2018-07-24T07:16:33.081Z,98569.72
2018-07-24T07:19:04.365Z,98574.95
2018-07-24T07:21:36.028Z,98576.17
2018-07-24T07:24:06.580Z,98573.58
2018-07-24T07:26:37.392Z,98576.64
2018-07-24T07:29:08.922Z,98568.75
2018-07-24T07:31:39.738Z,98567.20
2018-07-24T07:34:10.938Z,98569.22
2018-07-24T07:36:42.496Z,98570.17
2018-07-24T07:39:13.415Z,98570.03
2018-07-24T07:41:44.464Z,98571.00
2018-07-24T07:44:14.549Z,98564.56
2018-07-24T07:46:45.385Z,98566.36
2018-07-24T07:49:16.971Z,98561.88
2018-07-24T07:51:48.168Z,98560.02
2018-07-24T07:54:19.091Z,98560.81
2018-07-24T07:56:49.720Z,98559.70
2018-07-24T07:59:20.371Z,98566.88
2018-07-24T08:01:51.454Z,98569.30
2018-07-24T08:04:23.524Z,98563.59
2018-07-24T08:06:56.225Z,98573.93
2018-07-24T08:09:28.729Z,98559.82
2018-07-24T08:12:00.179Z,98554.64
2018-07-24T08:14:30.834Z,98553.53
2018-07-24T08:17:02.214Z,98550.00
2018-07-24T08:19:35.366Z,98548.33
2018-07-24T08:22:06.402Z,98552.56
2018-07-24T08:24:38.205Z,98549.11
2018-07-24T08:27:10.448Z,98548.86
2018-07-24T08:29:41.466Z,98551.54
2018-07-24T08:32:11.549Z,98550.17
2018-07-24T08:34:42.673Z,98547.88
2018-07-24T08:37:13.741Z,98544.75
2018-07-24T08:39:44.521Z,98543.48
2018-07-24T08:42:15.606Z,98540.39
2018-07-24T08:44:49.324Z,98544.00
2018-07-24T08:47:22.422Z,98545.38
2018-07-24T08:49:53.556Z,98547.89
2018-07-24T08:52:24.909Z,98545.44
2018-07-24T08:54:56.003Z,98548.14
2018-07-24T08:57:26.984Z,98548.42
2018-07-24T08:59:58.531Z,98548.23
2018-07-24T09:02:31.557Z,98554.34
2018-07-24T09:05:02.334Z,98552.77
2018-07-24T09:07:33.258Z,98554.55
2018-07-24T09:10:04.731Z,98545.04
2018-07-24T09:12:35.984Z,98548.76
2018-07-24T09:15:08.647Z,98549.29
2018-07-24T09:17:41.529Z,98550.93
2018-07-24T09:20:13.848Z,98543.33
2018-07-24T09:22:45.499Z,98537.86
2018-07-24T09:25:16.202Z,98541.33
2018-07-24T09:27:47.042Z,98534.19
2018-07-24T09:30:17.635Z,98539.27
2018-07-24T09:32:48.363Z,98542.39
2018-07-24T09:35:19.148Z,98536.97
2018-07-24T09:37:50.789Z,98537.14
2018-07-24T09:40:25.022Z,98530.18
2018-07-24T09:42:56.009Z,98535.33
2018-07-24T09:45:26.757Z,98536.72
2018-07-24T09:47:57.757Z,98537.55
2018-07-24T09:50:28.673Z,98530.87
2018-07-24T09:52:59.293Z,98526.09
2018-07-24T09:55:30.300Z,98523.63
2018-07-24T09:58:02.224Z,98524.91
2018-07-24T10:00:38.029Z,98521.55
2018-07-24T10:03:08.915Z,98522.20
2018-07-24T10:05:39.734Z,98519.97
2018-07-24T10:08:10.419Z,98522.16
2018-07-24T10:10:41.327Z,98522.91
2018-07-24T10:13:13.193Z,98519.98
2018-07-24T10:15:43.979Z,98518.35
2018-07-24T10:18:14.537Z,98515.03
2018-07-24T10:20:45.060Z,98517.73
2018-07-24T10:23:15.802Z,98514.05
2018-07-24T10:25:46.570Z,98512.44
2018-07-24T10:28:17.375Z,98513.79
2018-07-24T10:30:48.229Z,98511.64
2018-07-24T10:33:20.693Z,98502.98
2018-07-24T10:35:52.818Z,98501.88
2018-07-24T10:38:23.889Z,98513.91
2018-07-24T10:40:54.576Z,98504.95
2018-07-24T10:43:25.368Z,98497.83
2018-07-24T10:45:55.607Z,98494.27
2018-07-24T10:48:26.285Z,98494.36
2018-07-24T10:50:58.934Z,98498.22
2018-07-24T10:53:30.027Z,98499.38
2018-07-24T10:56:00.305Z,98492.05
2018-07-24T10:58:31.001Z,98494.69
2018-07-24T11:01:02.237Z,98494.11
2018-07-24T11:03:32.819Z,98489.75
2018-07-24T11:06:03.566Z,98490.61
2018-07-24T11:08:35.067Z,98491.44
2018-07-24T11:11:07.708Z,98491.74
2018-07-24T11:13:39.516Z,98490.50
2018-07-24T11:16:10.281Z,98489.73
2018-07-24T11:18:40.383Z,98478.84
2018-07-24T11:21:11.266Z,98477.83
2018-07-24T11:23:41.795Z,98479.20
2018-07-24T11:26:12.932Z,98473.67
2018-07-24T11:28:45.029Z,98480.66
2018-07-24T11:31:16.048Z,98472.20
2018-07-24T11:33:46.822Z,98468.34
2018-07-24T11:36:17.554Z,98469.20
2018-07-24T11:38:48.379Z,98477.06
2018-07-24T11:41:19.018Z,98471.20
2018-07-24T11:43:49.835Z,98463.42
2018-07-24T11:46:20.928Z,98465.97
2018-07-24T11:48:52.496Z,98467.26
2018-07-24T11:51:23.141Z,98470.57
2018-07-24T11:53:54.804Z,98459.71
2018-07-24T11:56:25.934Z,98459.77
2018-07-24T11:58:57.273Z,98454.70
2018-07-24T12:01:27.916Z,98460.96
2018-07-24T12:03:58.707Z,98454.59
2018-07-24T12:06:31.348Z,98458.22
2018-07-24T12:09:04.136Z,98453.11
2018-07-24T12:11:35.049Z,98448.12
2018-07-24T12:14:05.844Z,98445.39
2018-07-24T12:16:37.437Z,98447.30
2018-07-24T12:19:08.614Z,98444.70
2018-07-24T12:21:41.802Z,98445.57
2018-07-24T12:24:15.801Z,98442.11
2018-07-24T12:26:46.635Z,98449.73
2018-07-24T12:29:17.881Z,98451.82
2018-07-24T12:31:49.435Z,98448.73
2018-07-24T12:34:20.533Z,98451.51
2018-07-24T12:36:51.537Z,98445.96
2018-07-24T12:39:23.587Z,98453.77
2018-07-24T12:41:56.339Z,98447.45
2018-07-24T12:44:30.021Z,98455.22
2018-07-24T12:47:01.370Z,98456.30
2018-07-24T12:49:32.562Z,98449.13
2018-07-24T12:52:03.463Z,98445.60
2018-07-24T12:54:34.423Z,98447.53
2018-07-24T12:57:05.945Z,98452.13
2018-07-24T12:59:37.782Z,98447.92
2018-07-24T13:02:08.788Z,98449.44
2018-07-24T13:04:40.535Z,98449.20
2018-07-24T13:07:12.062Z,98446.67
2018-07-24T13:09:42.904Z,98448.06
2018-07-24T13:12:14.171Z,98444.80
2018-07-24T13:14:45.608Z,98449.20
2018-07-24T13:17:17.910Z,98438.00
2018-07-24T13:19:48.894Z,98435.48
2018-07-24T13:22:19.580Z,98435.84
2018-07-24T13:24:50.431Z,98433.50
2018-07-24T13:27:21.160Z,98436.92
2018-07-24T13:29:51.877Z,98429.55
2018-07-24T13:32:22.875Z,98436.94
2018-07-24T13:34:54.402Z,98425.17
2018-07-24T13:37:25.508Z,98426.20
2018-07-24T13:39:57.336Z,98423.41
2018-07-24T13:42:30.735Z,98426.50
2018-07-24T13:45:02.196Z,98421.88
2018-07-24T13:47:33.162Z,98415.82
2018-07-24T13:50:04.679Z,98409.34
2018-07-24T13:52:36.292Z,98412.38
2018-07-24T13:55:07.376Z,98412.93
2018-07-24T13:57:38.156Z,98412.02
2018-07-24T14:00:09.609Z,98403.98
2018-07-24T14:02:41.493Z,98404.62
2018-07-24T14:05:12.252Z,98404.88
2018-07-24T14:07:43.697Z,98401.33
2018-07-24T14:10:15.366Z,98404.30
2018-07-24T14:12:48.833Z,98395.08
2018-07-24T14:15:21.099Z,98398.75
2018-07-24T14:17:51.762Z,98395.24
2018-07-24T14:20:24.138Z,98389.45
2018-07-24T14:23:02.026Z,98390.53
2018-07-24T14:25:33.008Z,98384.39
2018-07-24T14:28:04.427Z,98387.59
2018-07-24T14:30:42.674Z,98385.48
2018-07-24T14:33:15.479Z,98379.78
2018-07-24T14:35:46.863Z,98384.97
2018-07-24T14:38:20.010Z,98378.67
2018-07-24T14:40:50.535Z,98382.43
2018-07-24T14:43:23.937Z,98379.51
2018-07-24T14:45:54.599Z,98379.69
2018-07-24T14:48:26.227Z,98375.30
2018-07-24T14:50:56.905Z,98372.59
2018-07-24T14:53:28.018Z,98367.70
2018-07-24T14:55:59.241Z,98374.39
2018-07-24T14:58:30.305Z,98366.16
2018-07-24T15:01:01.775Z,98369.86
2018-07-24T15:03:32.530Z,98364.54
2018-07-24T15:06:03.112Z,98364.78
2018-07-24T15:08:34.473Z,98359.55
2018-07-24T15:11:05.080Z,98359.15
2018-07-24T15:13:36.689Z,98356.48
2018-07-24T15:16:08.691Z,98355.86
2018-07-24T15:18:39.386Z,98351.91
2018-07-24T15:21:10.210Z,98360.38
2018-07-24T15:23:40.842Z,98344.78
2018-07-24T15:26:11.582Z,98346.34
2018-07-24T15:28:42.178Z,98347.19
2018-07-24T15:31:13.412Z,98342.42
2018-07-24T15:33:44.445Z,98332.97
2018-07-24T15:36:15.903Z,98340.72
2018-07-24T15:38:46.720Z,98338.59
2018-07-24T15:41:18.532Z,98333.20
2018-07-24T15:43:50.307Z,98332.10
2018-07-24T15:46:21.142Z,98337.29
2018-07-24T15:48:52.028Z,98337.28
2018-07-24T15:51:24.482Z,98338.94
2018-07-24T15:53:56.249Z,98336.25
2018-07-24T15:56:28.317Z,98334.89
2018-07-24T15:59:01.359Z,98331.11
2018-07-24T16:01:32.736Z,98328.92
2018-07-24T16:04:05.441Z,98319.73
2018-07-24T16:06:39.328Z,98324.62
2018-07-24T16:09:13.026Z,98326.52
2018-07-24T16:11:43.775Z,98323.78
2018-07-24T16:14:14.909Z,98324.61
2018-07-24T16:16:46.411Z,98326.49
2018-07-24T16:19:18.348Z,98328.67
2018-07-24T16:21:51.306Z,98323.26
2018-07-24T16:24:24.133Z,98322.92
2018-07-24T16:26:57.363Z,98320.73
2018-07-24T16:29:29.228Z,98319.91
2018-07-24T16:32:03.147Z,98317.73
2018-07-24T16:34:34.891Z,98315.58
2018-07-24T16:37:07.373Z,98316.64
2018-07-24T16:39:39.443Z,98310.11
2018-07-24T16:42:10.906Z,98311.19
2018-07-24T16:44:44.909Z,98314.16
2018-07-24T16:47:16.494Z,98310.61
2018-07-24T16:49:48.430Z,98316.77
2018-07-24T16:52:26.295Z,98315.09
2018-07-24T16:54:59.930Z,98311.17
2018-07-24T16:57:32.244Z,98315.97
2018-07-24T17:00:04.620Z,98312.73
2018-07-24T17:02:36.600Z,98317.06
2018-07-24T17:05:08.618Z,98319.97
2018-07-24T17:07:42.211Z,98313.45
2018-07-24T17:10:16.663Z,98321.84
2018-07-24T17:12:50.500Z,98317.94
2018-07-24T17:15:23.425Z,98321.15
2018-07-24T17:17:56.719Z,98318.69
2018-07-24T17:20:29.249Z,98325.67
2018-07-24T17:23:01.163Z,98319.25
2018-07-24T17:25:33.579Z,98324.86
2018-07-24T17:28:05.788Z,98325.63
2018-07-24T17:30:38.692Z,98328.70
2018-07-24T17:33:11.814Z,98326.73
2018-07-24T17:35:46.740Z,98323.14
2018-07-24T17:38:18.962Z,98323.72
2018-07-24T17:40:57.296Z,98323.35
2018-07-24T17:43:28.793Z,98321.66
2018-07-24T17:47:43.639Z,98317.39
2018-07-24T17:50:17.248Z,98317.92
2018-07-24T17:52:50.060Z,98328.29
2018-07-24T17:55:22.869Z,98322.48
2018-07-24T17:57:54.201Z,98320.67
2018-07-24T18:00:24.927Z,98322.39
2018-07-24T18:02:56.367Z,98326.03
2018-07-24T18:05:36.941Z,98323.48
2018-07-24T18:08:08.832Z,98318.69
2018-07-24T18:12:55.833Z,98322.87
2018-07-24T18:15:28.628Z,98334.02
2018-07-24T18:18:00.378Z,98328.13
2018-07-24T18:20:32.421Z,98329.52
2018-07-24T18:23:04.314Z,98335.27
2018-07-24T18:25:36.751Z,98330.77
2018-07-24T18:28:15.153Z,98334.99
2018-07-24T18:30:47.689Z,98330.73
2018-07-24T18:33:18.688Z,98336.98
2018-07-24T18:35:49.794Z,98338.31
2018-07-24T18:38:21.140Z,98341.34
2018-07-24T18:40:53.904Z,98342.59
2018-07-24T18:43:26.903Z,98338.89
2018-07-24T18:45:57.854Z,98343.20
2018-07-24T18:48:29.193Z,98340.41
2018-07-24T18:50:59.951Z,98345.14
2018-07-24T18:53:31.100Z,98347.03
2018-07-24T18:56:02.384Z,98346.72
2018-07-24T18:58:34.586Z,98353.58
2018-07-24T19:01:09.967Z,98351.70
2018-07-24T19:03:41.370Z,98357.06
2018-07-24T19:06:12.779Z,98351.23
2018-07-24T19:08:46.392Z,98350.75
2018-07-24T19:11:19.126Z,98357.52
2018-07-24T19:13:55.330Z,98367.02
2018-07-24T19:16:32.090Z,98371.78
2018-07-24T19:19:07.030Z,98376.80
2018-07-24T19:21:40.166Z,98389.02
2018-07-24T19:24:13.305Z,98393.89
2018-07-24T19:26:46.358Z,98392.58
2018-07-24T19:29:19.029Z,98397.06
2018-07-24T19:31:52.232Z,98402.93
2018-07-24T19:34:24.711Z,98407.99
2018-07-24T19:36:57.466Z,98410.96
2018-07-24T19:39:30.580Z,98423.93
2018-07-24T19:42:02.324Z,98418.74
2018-07-24T19:44:33.956Z,98418.78
2018-07-24T19:47:05.902Z,98416.05
2018-07-24T19:49:39.159Z,98424.09
2018-07-24T19:52:14.629Z,98417.49
2018-07-24T19:54:48.582Z,98417.61
2018-07-24T19:57:20.791Z,98417.61
2018-07-24T19:59:53.914Z,98417.09
2018-07-24T20:02:27.029Z,98426.03
2018-07-24T20:04:59.608Z,98422.97
2018-07-24T20:07:32.958Z,98422.06
2018-07-24T20:10:05.147Z,98428.85
2018-07-24T20:12:38.825Z,98418.27
2018-07-24T20:15:15.759Z,98423.82
2018-07-24T20:17:50.561Z,98422.33
2018-07-24T20:20:24.682Z,98431.41
2018-07-24T20:22:57.228Z,98425.08
2018-07-24T20:25:28.897Z,98430.75
2018-07-24T20:28:02.957Z,98435.12
2018-07-24T20:30:35.361Z,98428.59
2018-07-24T20:33:08.582Z,98434.88
2018-07-24T20:35:43.115Z,98434.38
2018-07-24T20:38:16.008Z,98429.42
2018-07-24T20:40:48.880Z,98426.13
2018-07-24T20:43:20.503Z,98427.05
2018-07-24T20:45:53.171Z,98428.88
2018-07-24T20:48:25.820Z,98437.38
2018-07-24T20:51:00.974Z,98441.33
2018-07-24T20:53:35.021Z,98442.03
2018-07-24T20:56:07.049Z,98446.48
2018-07-24T20:58:39.340Z,98449.62
2018-07-24T21:01:12.061Z,98452.01
2018-07-24T21:03:43.008Z,98448.97
2018-07-24T21:06:13.933Z,98450.73
2018-07-24T21:08:44.911Z,98455.02
2018-07-24T21:11:15.807Z,98460.09
2018-07-24T21:13:46.762Z,98462.39
2018-07-24T21:16:17.059Z,98456.05
2018-07-24T21:18:48.683Z,98458.05
2018-07-24T21:21:20.338Z,98463.04
2018-07-24T21:23:50.987Z,98463.23
2018-07-24T21:26:22.020Z,98468.63
2018-07-24T21:28:52.809Z,98473.05
2018-07-24T21:31:23.579Z,98476.48
2018-07-24T21:33:54.261Z,98473.21
2018-07-24T21:36:28.854Z,98479.73
2018-07-24T21:39:00.892Z,98479.02
2018-07-24T21:41:31.997Z,98478.86
2018-07-24T21:44:02.798Z,98480.23
2018-07-24T21:46:33.709Z,98482.06
2018-07-24T21:49:04.545Z,98484.87
2018-07-24T21:51:35.782Z,98481.95
2018-07-24T21:54:07.280Z,98483.82
2018-07-24T21:56:38.456Z,98490.16
2018-07-24T21:59:09.284Z,98486.81
2018-07-24T22:01:41.013Z,98485.94
2018-07-24T22:04:11.707Z,98487.27
2018-07-24T22:06:42.680Z,98488.45
2018-07-24T22:09:13.800Z,98484.41
2018-07-24T22:11:45.102Z,98487.64
2018-07-24T22:14:16.561Z,98486.80
2018-07-24T22:16:48.003Z,98489.81
2018-07-24T22:19:19.715Z,98487.53
2018-07-24T22:21:52.716Z,98490.55
2018-07-24T22:24:23.379Z,98489.26
2018-07-24T22:26:54.209Z,98489.30
2018-07-24T22:29:25.119Z,98490.02
2018-07-24T22:31:56.464Z,98492.27
2018-07-24T22:34:29.663Z,98493.10
2018-07-24T22:37:03.174Z,98494.20
2018-07-24T22:39:34.317Z,98493.47
2018-07-24T22:42:05.334Z,98491.84
2018-07-24T22:44:35.867Z,98497.71
2018-07-24T22:47:06.610Z,98492.78
2018-07-24T22:49:38.859Z,98498.20
2018-07-24T22:52:09.784Z,98496.08
2018-07-24T22:54:40.514Z,98501.73
2018-07-24T22:57:11.285Z,98499.25
2018-07-24T22:59:41.587Z,98500.73
2018-07-24T23:02:12.425Z,98495.24
2018-07-24T23:04:42.844Z,98493.85
2018-07-24T23:07:13.846Z,98491.23
2018-07-24T23:09:44.513Z,98495.83
2018-07-24T23:12:15.541Z,98484.91
2018-07-24T23:14:46.422Z,98483.33
2018-07-24T23:17:16.862Z,98486.08
2018-07-24T23:19:47.631Z,98484.66
2018-07-24T23:22:19.947Z,98489.81
2018-07-24T23:24:50.350Z,98489.81
2018-07-24T23:27:20.824Z,98492.14
2018-07-24T23:29:51.235Z,98492.98
2018-07-24T23:32:22.082Z,98487.16
2018-07-24T23:34:52.383Z,98493.46
2018-07-24T23:37:22.731Z,98483.54
2018-07-24T23:39:53.692Z,98488.82
2018-07-24T23:42:24.338Z,98485.05
2018-07-24T23:44:54.769Z,98484.87
2018-07-24T23:47:26.241Z,98484.91
2018-07-24T23:49:56.717Z,98484.55
2018-07-24T23:52:27.154Z,98485.23
2018-07-24T23:54:57.544Z,98486.57
2018-07-24T23:57:27.877Z,98486.93
2018-07-24T23:59:58.740Z,98484.66
